Impacts METAR Board
IDs:

KLAS - Las Vegas/McCarran I, NV, US

Updated at: 1400 UTC 13 Dec 2018
Potential Impact None Slight Moderate High
Time 13/02Z 13/03Z 13/04Z 13/05Z 13/06Z 13/07Z 13/08Z 13/09Z 13/10Z 13/11Z 13/12Z 13/13Z 13/14Z
Temp59 57 55 54 52 50 48 48 46 46 44 42 41
Dewpt22 12 13 14 15 15 17 16 16 16 17 19 19
Altim30.18 30.20 30.22 30.28 30.26 30.28 30.28 30.29 30.32 30.34 30.35 30.37 30.40
VIS10 10 10 10 10 10 10 10 10 10 10 10 10
CIG-- -- -- -- 250 250 250 250 250 250 -- -- --
CoverFEWFEWSCTSCTBKNBKNBKNBKNBKNBKNSCTSCTSCT
FltCatVFRVFRVFRVFRVFRVFRVFRVFRVFRVFRVFRVFRVFR
WX--------------------------
WDir405011040306013006001802200
WSpd10 7 5 12 8 10 4 0 9 0 4 5 0
WGst-- -- -- -- -- -- -- -- -- -- -- -- --
Raw hourly METARs
KLAS 130156Z 04010KT 10SM FEW250 15/M06 A3018 RMK AO2 SLP217 T01501056
KLAS 130256Z 05007KT 10SM FEW250 14/M11 A3020 RMK AO2 SLP224 T01391111 51021
KLAS 130356Z 11005KT 10SM SCT250 13/M11 A3022 RMK AO2 SLP232 T01281106
KLAS 130456Z 04012KT 10SM SCT250 12/M10 A3028 RMK AO2 SLP249 T01221100
KLAS 130556Z 03008KT 10SM BKN250 11/M09 A3026 RMK AO2 SLP242 T01111094 10167 20106 50019
KLAS 130656Z 06010KT 10SM BKN250 10/M09 A3028 RMK AO2 SLP248 T01001094
KLAS 130756Z 13004KT 10SM BKN250 09/M08 A3028 RMK AO2 SLP249 T00891083 402000061
KLAS 130856Z 00000KT 10SM BKN250 09/M09 A3029 RMK AO2 SLP250 T00891089 51009
KLAS 130956Z 06009KT 10SM BKN250 08/M09 A3032 RMK AO2 SLP262 T00781089
KLAS 131056Z 00000KT 10SM BKN250 08/M09 A3034 RMK AO2 SLP270 T00781089
KLAS 131156Z 18004KT 10SM SCT250 07/M08 A3035 RMK AO2 SLP275 T00671083 10111 20067 51021
KLAS 131256Z 22005KT 10SM SCT250 06/M07 A3037 RMK AO2 SLP284 T00561072
KLAS 131356Z 00000KT 10SM SCT250 05/M07 A3040 RMK AO2 SLP294 T00501072



Page loaded:  14:31 UTC  |   06:31 AM Pacific  |   07:31 AM Mountain  |   08:31 AM Central  |   09:31 AM Eastern

 

ADVISORIES

FORECASTS

FORECASTS

OBSERVATIONS

USER TOOLS

ABOUT US